sensor_id;sensor_type;location;lat;lon;timestamp;P1;durP1;ratioP1;P2;durP2;ratioP2
27670;SDS011;15077;49.704;9.908;2023-04-24T00:00:03;1.02;;;0.65;;
27670;SDS011;15077;49.704;9.908;2023-04-24T00:02:31;0.98;;;0.50;;
27670;SDS011;15077;49.704;9.908;2023-04-24T00:05:00;4.43;;;0.60;;
27670;SDS011;15077;49.704;9.908;2023-04-24T00:07:27;0.57;;;0.55;;
27670;SDS011;15077;49.704;9.908;2023-04-24T00:09:53;0.93;;;0.50;;
27670;SDS011;15077;49.704;9.908;2023-04-24T00:12:19;1.67;;;0.50;;
27670;SDS011;15077;49.704;9.908;2023-04-24T00:14:45;1.02;;;0.43;;
27670;SDS011;15077;49.704;9.908;2023-04-24T00:17:11;1.65;;;0.65;;
27670;SDS011;15077;49.704;9.908;2023-04-24T00:19:37;0.75;;;0.40;;
27670;SDS011;15077;49.704;9.908;2023-04-24T00:22:03;2.95;;;0.75;;
27670;SDS011;15077;49.704;9.908;2023-04-24T00:24:29;2.35;;;0.55;;
27670;SDS011;15077;49.704;9.908;2023-04-24T00:26:54;3.00;;;0.70;;
27670;SDS011;15077;49.704;9.908;2023-04-24T00:29:21;0.85;;;0.40;;
27670;SDS011;15077;49.704;9.908;2023-04-24T00:31:47;1.02;;;0.68;;
27670;SDS011;15077;49.704;9.908;2023-04-24T00:34:12;0.77;;;0.40;;
27670;SDS011;15077;49.704;9.908;2023-04-24T00:36:39;1.23;;;0.60;;
27670;SDS011;15077;49.704;9.908;2023-04-24T00:39:07;2.45;;;0.40;;
27670;SDS011;15077;49.704;9.908;2023-04-24T00:41:34;2.20;;;0.40;;
27670;SDS011;15077;49.704;9.908;2023-04-24T00:44:02;0.50;;;0.40;;
27670;SDS011;15077;49.704;9.908;2023-04-24T00:46:29;0.40;;;0.30;;
27670;SDS011;15077;49.704;9.908;2023-04-24T00:48:56;1.52;;;0.50;;
27670;SDS011;15077;49.704;9.908;2023-04-24T00:51:24;0.60;;;0.30;;
27670;SDS011;15077;49.704;9.908;2023-04-24T00:53:49;0.82;;;0.38;;
27670;SDS011;15077;49.704;9.908;2023-04-24T00:56:17;0.90;;;0.35;;
27670;SDS011;15077;49.704;9.908;2023-04-24T00:58:43;0.77;;;0.40;;
27670;SDS011;15077;49.704;9.908;2023-04-24T01:01:10;1.55;;;0.70;;
27670;SDS011;15077;49.704;9.908;2023-04-24T01:03:36;0.77;;;0.50;;
27670;SDS011;15077;49.704;9.908;2023-04-24T01:06:03;1.38;;;0.40;;
27670;SDS011;15077;49.704;9.908;2023-04-24T01:08:30;1.25;;;0.30;;
27670;SDS011;15077;49.704;9.908;2023-04-24T01:10:56;0.50;;;0.40;;
27670;SDS011;15077;49.704;9.908;2023-04-24T01:13:23;0.88;;;0.40;;
27670;SDS011;15077;49.704;9.908;2023-04-24T01:15:49;1.65;;;0.47;;
27670;SDS011;15077;49.704;9.908;2023-04-24T01:18:15;1.00;;;0.50;;
27670;SDS011;15077;49.704;9.908;2023-04-24T01:20:41;1.83;;;0.45;;
27670;SDS011;15077;49.704;9.908;2023-04-24T01:23:10;0.73;;;0.40;;
27670;SDS011;15077;49.704;9.908;2023-04-24T01:25:36;1.27;;;0.50;;
27670;SDS011;15077;49.704;9.908;2023-04-24T01:28:02;0.90;;;0.50;;
27670;SDS011;15077;49.704;9.908;2023-04-24T01:30:29;1.65;;;0.50;;
27670;SDS011;15077;49.704;9.908;2023-04-24T01:32:56;2.05;;;0.60;;
27670;SDS011;15077;49.704;9.908;2023-04-24T01:35:23;0.73;;;0.50;;
27670;SDS011;15077;49.704;9.908;2023-04-24T01:37:50;1.35;;;1.00;;
27670;SDS011;15077;49.704;9.908;2023-04-24T01:40:15;2.42;;;0.80;;
27670;SDS011;15077;49.704;9.908;2023-04-24T01:42:41;0.85;;;0.50;;
27670;SDS011;15077;49.704;9.908;2023-04-24T01:45:08;1.33;;;0.60;;
27670;SDS011;15077;49.704;9.908;2023-04-24T01:47:37;1.70;;;0.43;;
27670;SDS011;15077;49.704;9.908;2023-04-24T01:50:04;2.00;;;0.52;;
27670;SDS011;15077;49.704;9.908;2023-04-24T01:52:31;1.08;;;0.50;;
27670;SDS011;15077;49.704;9.908;2023-04-24T01:55:01;1.38;;;0.50;;
27670;SDS011;15077;49.704;9.908;2023-04-24T01:57:30;0.40;;;0.30;;
27670;SDS011;15077;49.704;9.908;2023-04-24T01:59:56;0.47;;;0.40;;
27670;SDS011;15077;49.704;9.908;2023-04-24T02:02:22;0.70;;;0.40;;
27670;SDS011;15077;49.704;9.908;2023-04-24T02:04:52;0.95;;;0.40;;
27670;SDS011;15077;49.704;9.908;2023-04-24T02:07:19;1.00;;;0.50;;
27670;SDS011;15077;49.704;9.908;2023-04-24T02:09:45;1.52;;;0.70;;
27670;SDS011;15077;49.704;9.908;2023-04-24T02:12:11;0.77;;;0.50;;
27670;SDS011;15077;49.704;9.908;2023-04-24T02:14:36;1.10;;;0.40;;
27670;SDS011;15077;49.704;9.908;2023-04-24T02:17:02;0.80;;;0.38;;
27670;SDS011;15077;49.704;9.908;2023-04-24T02:19:29;1.38;;;0.45;;
27670;SDS011;15077;49.704;9.908;2023-04-24T02:21:56;0.55;;;0.30;;
27670;SDS011;15077;49.704;9.908;2023-04-24T02:24:21;0.93;;;0.40;;
27670;SDS011;15077;49.704;9.908;2023-04-24T02:26:47;1.08;;;0.40;;
27670;SDS011;15077;49.704;9.908;2023-04-24T02:29:13;0.98;;;0.40;;
27670;SDS011;15077;49.704;9.908;2023-04-24T02:31:38;1.00;;;0.47;;
27670;SDS011;15077;49.704;9.908;2023-04-24T02:34:04;0.80;;;0.40;;
27670;SDS011;15077;49.704;9.908;2023-04-24T02:36:30;0.85;;;0.47;;
27670;SDS011;15077;49.704;9.908;2023-04-24T02:38:56;1.50;;;0.40;;
27670;SDS011;15077;49.704;9.908;2023-04-24T02:41:22;0.80;;;0.50;;
27670;SDS011;15077;49.704;9.908;2023-04-24T02:43:48;0.75;;;0.47;;
27670;SDS011;15077;49.704;9.908;2023-04-24T02:46:14;0.75;;;0.60;;
27670;SDS011;15077;49.704;9.908;2023-04-24T02:48:40;1.98;;;0.52;;
27670;SDS011;15077;49.704;9.908;2023-04-24T02:51:06;1.27;;;0.70;;
27670;SDS011;15077;49.704;9.908;2023-04-24T02:53:31;1.67;;;0.63;;
27670;SDS011;15077;49.704;9.908;2023-04-24T02:55:57;0.63;;;0.30;;
27670;SDS011;15077;49.704;9.908;2023-04-24T02:58:23;0.80;;;0.50;;
27670;SDS011;15077;49.704;9.908;2023-04-24T03:00:52;0.73;;;0.43;;
27670;SDS011;15077;49.704;9.908;2023-04-24T03:03:20;1.00;;;0.45;;
27670;SDS011;15077;49.704;9.908;2023-04-24T03:05:47;1.40;;;0.40;;
27670;SDS011;15077;49.704;9.908;2023-04-24T03:08:12;0.30;;;0.30;;
27670;SDS011;15077;49.704;9.908;2023-04-24T03:10:39;0.95;;;0.30;;
27670;SDS011;15077;49.704;9.908;2023-04-24T03:13:05;1.65;;;0.35;;
27670;SDS011;15077;49.704;9.908;2023-04-24T03:15:31;1.83;;;0.40;;
27670;SDS011;15077;49.704;9.908;2023-04-24T03:17:57;0.88;;;0.40;;
27670;SDS011;15077;49.704;9.908;2023-04-24T03:20:23;1.33;;;0.60;;
27670;SDS011;15077;49.704;9.908;2023-04-24T03:22:49;0.57;;;0.40;;
27670;SDS011;15077;49.704;9.908;2023-04-24T03:25:15;0.95;;;0.40;;
27670;SDS011;15077;49.704;9.908;2023-04-24T03:27:40;1.00;;;0.40;;
27670;SDS011;15077;49.704;9.908;2023-04-24T03:30:07;1.38;;;0.50;;
27670;SDS011;15077;49.704;9.908;2023-04-24T03:32:33;0.47;;;0.30;;
27670;SDS011;15077;49.704;9.908;2023-04-24T03:34:59;1.02;;;0.30;;
27670;SDS011;15077;49.704;9.908;2023-04-24T03:37:25;0.82;;;0.38;;
27670;SDS011;15077;49.704;9.908;2023-04-24T03:39:51;1.60;;;0.30;;
27670;SDS011;15077;49.704;9.908;2023-04-24T03:42:17;1.58;;;0.40;;
27670;SDS011;15077;49.704;9.908;2023-04-24T03:44:43;0.82;;;0.52;;
27670;SDS011;15077;49.704;9.908;2023-04-24T03:47:09;1.73;;;0.60;;
27670;SDS011;15077;49.704;9.908;2023-04-24T03:49:35;1.00;;;0.50;;
27670;SDS011;15077;49.704;9.908;2023-04-24T03:52:01;1.00;;;0.70;;
27670;SDS011;15077;49.704;9.908;2023-04-24T03:54:28;0.90;;;0.70;;
27670;SDS011;15077;49.704;9.908;2023-04-24T03:56:54;0.70;;;0.40;;
27670;SDS011;15077;49.704;9.908;2023-04-24T03:59:21;2.30;;;1.33;;
27670;SDS011;15077;49.704;9.908;2023-04-24T04:01:48;2.65;;;2.33;;
27670;SDS011;15077;49.704;9.908;2023-04-24T04:04:16;9.82;;;8.57;;
27670;SDS011;15077;49.704;9.908;2023-04-24T04:06:43;8.40;;;6.38;;
27670;SDS011;15077;49.704;9.908;2023-04-24T04:09:10;8.60;;;6.20;;
27670;SDS011;15077;49.704;9.908;2023-04-24T04:11:38;8.45;;;5.38;;
27670;SDS011;15077;49.704;9.908;2023-04-24T04:14:05;11.80;;;7.00;;
27670;SDS011;15077;49.704;9.908;2023-04-24T04:16:31;7.38;;;4.60;;
27670;SDS011;15077;49.704;9.908;2023-04-24T04:18:57;6.72;;;3.83;;
27670;SDS011;15077;49.704;9.908;2023-04-24T04:21:23;24.42;;;10.27;;
27670;SDS011;15077;49.704;9.908;2023-04-24T04:23:49;17.13;;;9.45;;
27670;SDS011;15077;49.704;9.908;2023-04-24T04:26:14;13.88;;;6.50;;
27670;SDS011;15077;49.704;9.908;2023-04-24T04:28:40;20.30;;;7.47;;
27670;SDS011;15077;49.704;9.908;2023-04-24T04:31:06;13.25;;;5.63;;
27670;SDS011;15077;49.704;9.908;2023-04-24T04:33:32;6.10;;;3.25;;
27670;SDS011;15077;49.704;9.908;2023-04-24T04:36:00;8.38;;;3.28;;
27670;SDS011;15077;49.704;9.908;2023-04-24T04:38:26;6.13;;;2.25;;
27670;SDS011;15077;49.704;9.908;2023-04-24T04:40:54;7.65;;;2.65;;
27670;SDS011;15077;49.704;9.908;2023-04-24T04:43:22;10.73;;;4.47;;
27670;SDS011;15077;49.704;9.908;2023-04-24T04:45:49;7.18;;;2.28;;
27670;SDS011;15077;49.704;9.908;2023-04-24T04:48:16;4.10;;;1.75;;
27670;SDS011;15077;49.704;9.908;2023-04-24T04:50:43;3.78;;;1.02;;
27670;SDS011;15077;49.704;9.908;2023-04-24T04:53:10;3.97;;;1.27;;
27670;SDS011;15077;49.704;9.908;2023-04-24T04:55:36;2.95;;;1.25;;
27670;SDS011;15077;49.704;9.908;2023-04-24T04:58:02;0.95;;;0.40;;
27670;SDS011;15077;49.704;9.908;2023-04-24T05:00:28;2.38;;;0.63;;
27670;SDS011;15077;49.704;9.908;2023-04-24T05:02:59;1.73;;;0.80;;
27670;SDS011;15077;49.704;9.908;2023-04-24T05:05:25;1.52;;;0.80;;
27670;SDS011;15077;49.704;9.908;2023-04-24T05:07:50;1.30;;;0.75;;
27670;SDS011;15077;49.704;9.908;2023-04-24T05:10:16;1.92;;;1.00;;
27670;SDS011;15077;49.704;9.908;2023-04-24T05:12:42;4.03;;;2.20;;
27670;SDS011;15077;49.704;9.908;2023-04-24T05:15:08;3.60;;;1.98;;
27670;SDS011;15077;49.704;9.908;2023-04-24T05:17:34;5.03;;;1.30;;
27670;SDS011;15077;49.704;9.908;2023-04-24T05:20:01;7.22;;;2.97;;
27670;SDS011;15077;49.704;9.908;2023-04-24T05:22:30;5.43;;;2.28;;
27670;SDS011;15077;49.704;9.908;2023-04-24T05:24:56;4.15;;;1.90;;
27670;SDS011;15077;49.704;9.908;2023-04-24T05:27:22;3.92;;;1.83;;
27670;SDS011;15077;49.704;9.908;2023-04-24T05:29:48;7.80;;;2.88;;
27670;SDS011;15077;49.704;9.908;2023-04-24T05:32:14;11.82;;;4.38;;
27670;SDS011;15077;49.704;9.908;2023-04-24T05:34:39;9.73;;;4.18;;
27670;SDS011;15077;49.704;9.908;2023-04-24T05:37:05;7.38;;;3.30;;
27670;SDS011;15077;49.704;9.908;2023-04-24T05:39:33;5.18;;;2.40;;
27670;SDS011;15077;49.704;9.908;2023-04-24T05:42:00;1.92;;;1.40;;
27670;SDS011;15077;49.704;9.908;2023-04-24T05:44:26;2.33;;;1.48;;
27670;SDS011;15077;49.704;9.908;2023-04-24T05:46:52;2.20;;;1.05;;
27670;SDS011;15077;49.704;9.908;2023-04-24T05:49:18;2.45;;;1.38;;
27670;SDS011;15077;49.704;9.908;2023-04-24T05:51:43;2.72;;;1.60;;
27670;SDS011;15077;49.704;9.908;2023-04-24T05:54:09;2.55;;;1.10;;
27670;SDS011;15077;49.704;9.908;2023-04-24T05:56:37;3.35;;;1.55;;
27670;SDS011;15077;49.704;9.908;2023-04-24T05:59:03;2.55;;;1.20;;
27670;SDS011;15077;49.704;9.908;2023-04-24T06:01:29;3.05;;;1.20;;
27670;SDS011;15077;49.704;9.908;2023-04-24T06:03:56;6.85;;;3.13;;
27670;SDS011;15077;49.704;9.908;2023-04-24T06:06:23;5.60;;;2.22;;
27670;SDS011;15077;49.704;9.908;2023-04-24T06:08:49;4.10;;;2.35;;
27670;SDS011;15077;49.704;9.908;2023-04-24T06:11:14;4.45;;;1.90;;
27670;SDS011;15077;49.704;9.908;2023-04-24T06:13:40;3.90;;;1.42;;
27670;SDS011;15077;49.704;9.908;2023-04-24T06:16:06;2.03;;;1.27;;
27670;SDS011;15077;49.704;9.908;2023-04-24T06:18:33;1.58;;;0.90;;
27670;SDS011;15077;49.704;9.908;2023-04-24T06:20:58;1.52;;;0.80;;
27670;SDS011;15077;49.704;9.908;2023-04-24T06:23:27;2.55;;;0.90;;
27670;SDS011;15077;49.704;9.908;2023-04-24T06:25:52;2.17;;;1.10;;
27670;SDS011;15077;49.704;9.908;2023-04-24T06:28:18;1.20;;;0.80;;
27670;SDS011;15077;49.704;9.908;2023-04-24T06:30:44;1.30;;;0.90;;
27670;SDS011;15077;49.704;9.908;2023-04-24T06:33:10;1.25;;;0.90;;
27670;SDS011;15077;49.704;9.908;2023-04-24T06:35:36;2.35;;;1.20;;
27670;SDS011;15077;49.704;9.908;2023-04-24T06:38:03;2.83;;;0.90;;
27670;SDS011;15077;49.704;9.908;2023-04-24T06:40:29;2.08;;;1.63;;
27670;SDS011;15077;49.704;9.908;2023-04-24T06:42:55;2.08;;;1.50;;
27670;SDS011;15077;49.704;9.908;2023-04-24T06:45:22;2.00;;;1.20;;
27670;SDS011;15077;49.704;9.908;2023-04-24T06:47:48;1.95;;;1.30;;
27670;SDS011;15077;49.704;9.908;2023-04-24T06:50:14;1.88;;;1.38;;
27670;SDS011;15077;49.704;9.908;2023-04-24T06:52:40;2.42;;;1.50;;
27670;SDS011;15077;49.704;9.908;2023-04-24T06:55:06;4.85;;;1.52;;
27670;SDS011;15077;49.704;9.908;2023-04-24T06:57:32;2.03;;;1.15;;
27670;SDS011;15077;49.704;9.908;2023-04-24T06:59:58;1.83;;;1.23;;
27670;SDS011;15077;49.704;9.908;2023-04-24T07:02:24;1.98;;;1.58;;
27670;SDS011;15077;49.704;9.908;2023-04-24T07:04:50;2.88;;;1.70;;
27670;SDS011;15077;49.704;9.908;2023-04-24T07:07:16;2.78;;;1.50;;
27670;SDS011;15077;49.704;9.908;2023-04-24T07:09:42;3.38;;;2.08;;
27670;SDS011;15077;49.704;9.908;2023-04-24T07:12:08;5.47;;;3.05;;
27670;SDS011;15077;49.704;9.908;2023-04-24T07:14:35;5.07;;;2.53;;
27670;SDS011;15077;49.704;9.908;2023-04-24T07:17:03;2.90;;;2.22;;
27670;SDS011;15077;49.704;9.908;2023-04-24T07:19:29;2.90;;;2.28;;
27670;SDS011;15077;49.704;9.908;2023-04-24T07:21:55;4.15;;;2.55;;
27670;SDS011;15077;49.704;9.908;2023-04-24T07:24:23;4.20;;;2.58;;
27670;SDS011;15077;49.704;9.908;2023-04-24T07:26:51;6.30;;;2.85;;
27670;SDS011;15077;49.704;9.908;2023-04-24T07:29:19;3.92;;;2.85;;
27670;SDS011;15077;49.704;9.908;2023-04-24T07:31:45;3.70;;;2.70;;
27670;SDS011;15077;49.704;9.908;2023-04-24T07:34:11;3.95;;;2.17;;
27670;SDS011;15077;49.704;9.908;2023-04-24T07:36:37;2.58;;;1.90;;
27670;SDS011;15077;49.704;9.908;2023-04-24T07:39:03;4.68;;;2.85;;
27670;SDS011;15077;49.704;9.908;2023-04-24T07:41:31;5.07;;;3.00;;
27670;SDS011;15077;49.704;9.908;2023-04-24T07:43:56;5.28;;;2.30;;
27670;SDS011;15077;49.704;9.908;2023-04-24T07:46:23;3.65;;;2.05;;
27670;SDS011;15077;49.704;9.908;2023-04-24T07:48:50;4.03;;;1.90;;
27670;SDS011;15077;49.704;9.908;2023-04-24T07:51:16;2.97;;;2.08;;
27670;SDS011;15077;49.704;9.908;2023-04-24T07:53:42;3.60;;;2.80;;
27670;SDS011;15077;49.704;9.908;2023-04-24T07:56:08;5.00;;;2.30;;
27670;SDS011;15077;49.704;9.908;2023-04-24T07:58:34;3.25;;;2.53;;
27670;SDS011;15077;49.704;9.908;2023-04-24T08:01:01;4.47;;;2.15;;
27670;SDS011;15077;49.704;9.908;2023-04-24T08:03:26;3.78;;;2.30;;
27670;SDS011;15077;49.704;9.908;2023-04-24T08:05:52;3.30;;;2.08;;
27670;SDS011;15077;49.704;9.908;2023-04-24T08:08:21;4.05;;;2.00;;
27670;SDS011;15077;49.704;9.908;2023-04-24T08:10:47;3.08;;;1.95;;
27670;SDS011;15077;49.704;9.908;2023-04-24T08:13:14;3.50;;;2.35;;
27670;SDS011;15077;49.704;9.908;2023-04-24T08:15:40;3.17;;;2.45;;
27670;SDS011;15077;49.704;9.908;2023-04-24T08:18:06;2.88;;;2.28;;
27670;SDS011;15077;49.704;9.908;2023-04-24T08:20:32;3.03;;;2.38;;
27670;SDS011;15077;49.704;9.908;2023-04-24T08:22:58;2.90;;;2.30;;
27670;SDS011;15077;49.704;9.908;2023-04-24T08:25:23;2.58;;;1.75;;
27670;SDS011;15077;49.704;9.908;2023-04-24T08:27:50;3.33;;;2.30;;
27670;SDS011;15077;49.704;9.908;2023-04-24T08:30:16;2.67;;;2.10;;
27670;SDS011;15077;49.704;9.908;2023-04-24T08:32:42;3.03;;;2.42;;
27670;SDS011;15077;49.704;9.908;2023-04-24T08:35:08;3.25;;;2.25;;
27670;SDS011;15077;49.704;9.908;2023-04-24T08:37:35;3.83;;;2.40;;
27670;SDS011;15077;49.704;9.908;2023-04-24T08:40:02;3.72;;;2.30;;
27670;SDS011;15077;49.704;9.908;2023-04-24T08:42:41;2.60;;;2.10;;
27670;SDS011;15077;49.704;9.908;2023-04-24T08:45:09;5.32;;;2.88;;
27670;SDS011;15077;49.704;9.908;2023-04-24T08:47:38;2.50;;;2.00;;
27670;SDS011;15077;49.704;9.908;2023-04-24T08:50:06;3.40;;;2.47;;
27670;SDS011;15077;49.704;9.908;2023-04-24T08:52:34;2.90;;;1.90;;
27670;SDS011;15077;49.704;9.908;2023-04-24T08:55:01;1.70;;;1.60;;
27670;SDS011;15077;49.704;9.908;2023-04-24T08:57:27;1.63;;;1.48;;
27670;SDS011;15077;49.704;9.908;2023-04-24T08:59:54;2.00;;;1.20;;
27670;SDS011;15077;49.704;9.908;2023-04-24T09:02:23;2.33;;;1.13;;
27670;SDS011;15077;49.704;9.908;2023-04-24T09:04:49;1.98;;;0.95;;
27670;SDS011;15077;49.704;9.908;2023-04-24T09:07:16;1.13;;;0.82;;
27670;SDS011;15077;49.704;9.908;2023-04-24T09:09:44;2.33;;;0.98;;
27670;SDS011;15077;49.704;9.908;2023-04-24T09:12:10;1.20;;;1.02;;
27670;SDS011;15077;49.704;9.908;2023-04-24T09:14:37;3.33;;;1.52;;
27670;SDS011;15077;49.704;9.908;2023-04-24T09:17:07;1.42;;;1.00;;
27670;SDS011;15077;49.704;9.908;2023-04-24T09:19:33;2.20;;;0.90;;
27670;SDS011;15077;49.704;9.908;2023-04-24T09:21:58;1.27;;;0.95;;
27670;SDS011;15077;49.704;9.908;2023-04-24T09:24:24;2.15;;;1.10;;
27670;SDS011;15077;49.704;9.908;2023-04-24T09:26:59;4.50;;;1.25;;
27670;SDS011;15077;49.704;9.908;2023-04-24T09:29:26;1.60;;;1.30;;
27670;SDS011;15077;49.704;9.908;2023-04-24T09:31:52;2.00;;;1.42;;
27670;SDS011;15077;49.704;9.908;2023-04-24T09:34:22;1.70;;;0.98;;
27670;SDS011;15077;49.704;9.908;2023-04-24T09:36:50;2.03;;;1.20;;
27670;SDS011;15077;49.704;9.908;2023-04-24T09:39:19;1.20;;;1.10;;
27670;SDS011;15077;49.704;9.908;2023-04-24T09:41:51;1.88;;;1.27;;
27670;SDS011;15077;49.704;9.908;2023-04-24T09:44:22;1.50;;;1.10;;
27670;SDS011;15077;49.704;9.908;2023-04-24T09:49:27;2.28;;;1.48;;
27670;SDS011;15077;49.704;9.908;2023-04-24T09:52:04;1.92;;;1.20;;
27670;SDS011;15077;49.704;9.908;2023-04-24T09:54:32;2.15;;;1.55;;
27670;SDS011;15077;49.704;9.908;2023-04-24T09:56:58;1.73;;;1.48;;
27670;SDS011;15077;49.704;9.908;2023-04-24T09:59:27;2.33;;;1.35;;
27670;SDS011;15077;49.704;9.908;2023-04-24T10:01:54;1.75;;;1.35;;
27670;SDS011;15077;49.704;9.908;2023-04-24T10:04:21;3.45;;;1.45;;
27670;SDS011;15077;49.704;9.908;2023-04-24T10:06:49;1.67;;;1.25;;
27670;SDS011;15077;49.704;9.908;2023-04-24T10:09:18;2.45;;;1.67;;
27670;SDS011;15077;49.704;9.908;2023-04-24T10:11:47;3.22;;;1.70;;
27670;SDS011;15077;49.704;9.908;2023-04-24T10:14:16;1.58;;;1.42;;
27670;SDS011;15077;49.704;9.908;2023-04-24T10:16:45;2.15;;;1.60;;
27670;SDS011;15077;49.704;9.908;2023-04-24T10:19:16;1.90;;;1.60;;
27670;SDS011;15077;49.704;9.908;2023-04-24T10:24:15;2.70;;;1.60;;
27670;SDS011;15077;49.704;9.908;2023-04-24T10:26:44;2.80;;;1.77;;
27670;SDS011;15077;49.704;9.908;2023-04-24T10:29:13;2.30;;;2.10;;
27670;SDS011;15077;49.704;9.908;2023-04-24T10:31:42;1.90;;;1.60;;
27670;SDS011;15077;49.704;9.908;2023-04-24T10:34:11;2.72;;;1.70;;
27670;SDS011;15077;49.704;9.908;2023-04-24T10:36:41;2.22;;;1.90;;
27670;SDS011;15077;49.704;9.908;2023-04-24T10:39:15;2.63;;;2.00;;
27670;SDS011;15077;49.704;9.908;2023-04-24T10:41:43;3.05;;;1.60;;
27670;SDS011;15077;49.704;9.908;2023-04-24T10:44:12;3.20;;;1.85;;
27670;SDS011;15077;49.704;9.908;2023-04-24T10:46:42;2.85;;;1.50;;
27670;SDS011;15077;49.704;9.908;2023-04-24T10:49:11;2.90;;;1.60;;
27670;SDS011;15077;49.704;9.908;2023-04-24T10:51:52;2.60;;;1.35;;
27670;SDS011;15077;49.704;9.908;2023-04-24T10:54:25;2.33;;;1.30;;
27670;SDS011;15077;49.704;9.908;2023-04-24T10:56:53;3.90;;;1.60;;
27670;SDS011;15077;49.704;9.908;2023-04-24T10:59:48;2.10;;;1.42;;
27670;SDS011;15077;49.704;9.908;2023-04-24T11:02:37;4.63;;;1.80;;
27670;SDS011;15077;49.704;9.908;2023-04-24T11:05:08;2.55;;;1.42;;
27670;SDS011;15077;49.704;9.908;2023-04-24T11:10:47;4.25;;;1.92;;
27670;SDS011;15077;49.704;9.908;2023-04-24T11:13:23;3.30;;;1.70;;
27670;SDS011;15077;49.704;9.908;2023-04-24T11:19:01;1.80;;;1.60;;
27670;SDS011;15077;49.704;9.908;2023-04-24T11:21:39;3.08;;;1.40;;
27670;SDS011;15077;49.704;9.908;2023-04-24T11:27:15;2.63;;;1.50;;
27670;SDS011;15077;49.704;9.908;2023-04-24T11:32:27;2.28;;;1.65;;
27670;SDS011;15077;49.704;9.908;2023-04-24T11:37:44;2.45;;;1.92;;
27670;SDS011;15077;49.704;9.908;2023-04-24T11:40:16;3.50;;;1.52;;
27670;SDS011;15077;49.704;9.908;2023-04-24T11:42:48;4.85;;;2.45;;
27670;SDS011;15077;49.704;9.908;2023-04-24T11:45:17;3.78;;;2.05;;
27670;SDS011;15077;49.704;9.908;2023-04-24T11:47:52;3.55;;;2.38;;
27670;SDS011;15077;49.704;9.908;2023-04-24T11:50:19;5.05;;;2.22;;
27670;SDS011;15077;49.704;9.908;2023-04-24T11:52:48;3.33;;;2.05;;
27670;SDS011;15077;49.704;9.908;2023-04-24T11:57:44;2.72;;;1.60;;
27670;SDS011;15077;49.704;9.908;2023-04-24T12:00:15;8.63;;;4.03;;
27670;SDS011;15077;49.704;9.908;2023-04-24T12:02:44;3.80;;;2.63;;
27670;SDS011;15077;49.704;9.908;2023-04-24T12:08:05;2.17;;;1.70;;
27670;SDS011;15077;49.704;9.908;2023-04-24T12:10:31;1.67;;;1.00;;
27670;SDS011;15077;49.704;9.908;2023-04-24T12:12:59;1.63;;;1.30;;
27670;SDS011;15077;49.704;9.908;2023-04-24T12:15:25;1.65;;;1.13;;
27670;SDS011;15077;49.704;9.908;2023-04-24T12:17:53;3.15;;;1.70;;
27670;SDS011;15077;49.704;9.908;2023-04-24T12:20:24;2.53;;;1.35;;
27670;SDS011;15077;49.704;9.908;2023-04-24T12:22:53;1.63;;;1.10;;
27670;SDS011;15077;49.704;9.908;2023-04-24T12:25:22;3.05;;;1.38;;
27670;SDS011;15077;49.704;9.908;2023-04-24T12:30:31;2.15;;;1.55;;
27670;SDS011;15077;49.704;9.908;2023-04-24T12:33:00;2.38;;;1.58;;
27670;SDS011;15077;49.704;9.908;2023-04-24T12:35:28;2.40;;;1.60;;
27670;SDS011;15077;49.704;9.908;2023-04-24T12:38:15;2.10;;;1.45;;
27670;SDS011;15077;49.704;9.908;2023-04-24T12:40:43;3.45;;;1.83;;
27670;SDS011;15077;49.704;9.908;2023-04-24T12:43:18;2.35;;;1.30;;
27670;SDS011;15077;49.704;9.908;2023-04-24T12:45:45;2.35;;;1.55;;
27670;SDS011;15077;49.704;9.908;2023-04-24T12:48:14;2.35;;;1.90;;
27670;SDS011;15077;49.704;9.908;2023-04-24T12:50:40;3.05;;;2.28;;
27670;SDS011;15077;49.704;9.908;2023-04-24T12:53:07;2.78;;;1.60;;
27670;SDS011;15077;49.704;9.908;2023-04-24T12:55:34;3.47;;;2.25;;
27670;SDS011;15077;49.704;9.908;2023-04-24T12:58:00;3.53;;;2.33;;
27670;SDS011;15077;49.704;9.908;2023-04-24T13:00:27;3.42;;;2.65;;
27670;SDS011;15077;49.704;9.908;2023-04-24T13:02:52;3.58;;;2.58;;
27670;SDS011;15077;49.704;9.908;2023-04-24T13:05:18;8.23;;;4.95;;
27670;SDS011;15077;49.704;9.908;2023-04-24T13:07:44;4.90;;;3.13;;
27670;SDS011;15077;49.704;9.908;2023-04-24T13:10:10;3.85;;;2.20;;
27670;SDS011;15077;49.704;9.908;2023-04-24T13:12:36;3.05;;;1.90;;
27670;SDS011;15077;49.704;9.908;2023-04-24T13:15:02;3.55;;;2.08;;
27670;SDS011;15077;49.704;9.908;2023-04-24T13:17:28;1.92;;;1.35;;
27670;SDS011;15077;49.704;9.908;2023-04-24T13:19:55;4.97;;;1.63;;
27670;SDS011;15077;49.704;9.908;2023-04-24T13:22:21;2.72;;;1.58;;
27670;SDS011;15077;49.704;9.908;2023-04-24T13:24:47;2.38;;;1.55;;
27670;SDS011;15077;49.704;9.908;2023-04-24T13:27:16;3.05;;;2.30;;
27670;SDS011;15077;49.704;9.908;2023-04-24T13:29:43;2.85;;;1.95;;
27670;SDS011;15077;49.704;9.908;2023-04-24T13:32:09;2.88;;;2.10;;
27670;SDS011;15077;49.704;9.908;2023-04-24T13:34:35;2.90;;;2.20;;
27670;SDS011;15077;49.704;9.908;2023-04-24T13:37:02;2.47;;;1.80;;
27670;SDS011;15077;49.704;9.908;2023-04-24T13:39:29;2.83;;;2.17;;
27670;SDS011;15077;49.704;9.908;2023-04-24T13:41:55;2.80;;;1.98;;
27670;SDS011;15077;49.704;9.908;2023-04-24T13:44:22;3.47;;;2.17;;
27670;SDS011;15077;49.704;9.908;2023-04-24T13:46:50;3.08;;;2.30;;
27670;SDS011;15077;49.704;9.908;2023-04-24T13:49:19;4.03;;;1.67;;
27670;SDS011;15077;49.704;9.908;2023-04-24T13:51:46;2.17;;;1.80;;
27670;SDS011;15077;49.704;9.908;2023-04-24T13:54:12;4.28;;;1.70;;
27670;SDS011;15077;49.704;9.908;2023-04-24T13:56:41;2.60;;;1.85;;
27670;SDS011;15077;49.704;9.908;2023-04-24T13:59:07;4.35;;;2.22;;
27670;SDS011;15077;49.704;9.908;2023-04-24T14:01:34;3.75;;;1.92;;
27670;SDS011;15077;49.704;9.908;2023-04-24T14:04:00;2.45;;;1.85;;
27670;SDS011;15077;49.704;9.908;2023-04-24T14:06:26;2.78;;;1.90;;
27670;SDS011;15077;49.704;9.908;2023-04-24T14:08:51;2.97;;;2.35;;
27670;SDS011;15077;49.704;9.908;2023-04-24T14:11:18;3.65;;;2.35;;
27670;SDS011;15077;49.704;9.908;2023-04-24T14:13:45;3.13;;;2.00;;
27670;SDS011;15077;49.704;9.908;2023-04-24T14:16:11;2.70;;;1.73;;
27670;SDS011;15077;49.704;9.908;2023-04-24T14:18:37;2.47;;;1.70;;
27670;SDS011;15077;49.704;9.908;2023-04-24T14:21:04;2.63;;;2.00;;
27670;SDS011;15077;49.704;9.908;2023-04-24T14:23:31;2.92;;;1.90;;
27670;SDS011;15077;49.704;9.908;2023-04-24T14:25:59;2.58;;;1.80;;
27670;SDS011;15077;49.704;9.908;2023-04-24T14:28:25;3.88;;;2.05;;
27670;SDS011;15077;49.704;9.908;2023-04-24T14:30:51;4.22;;;2.58;;
27670;SDS011;15077;49.704;9.908;2023-04-24T14:33:17;5.43;;;3.83;;
27670;SDS011;15077;49.704;9.908;2023-04-24T14:35:43;5.28;;;3.38;;
27670;SDS011;15077;49.704;9.908;2023-04-24T14:38:10;8.82;;;5.28;;
27670;SDS011;15077;49.704;9.908;2023-04-24T14:40:36;7.55;;;4.68;;
27670;SDS011;15077;49.704;9.908;2023-04-24T14:43:03;4.32;;;2.85;;
27670;SDS011;15077;49.704;9.908;2023-04-24T14:45:29;6.03;;;4.30;;
27670;SDS011;15077;49.704;9.908;2023-04-24T14:47:55;3.72;;;2.90;;
27670;SDS011;15077;49.704;9.908;2023-04-24T14:50:21;3.35;;;2.42;;
27670;SDS011;15077;49.704;9.908;2023-04-24T14:52:47;5.07;;;3.10;;
27670;SDS011;15077;49.704;9.908;2023-04-24T14:55:13;4.55;;;2.28;;
27670;SDS011;15077;49.704;9.908;2023-04-24T14:57:39;14.35;;;9.95;;
27670;SDS011;15077;49.704;9.908;2023-04-24T15:00:05;6.18;;;5.10;;
27670;SDS011;15077;49.704;9.908;2023-04-24T15:02:35;3.90;;;2.88;;
27670;SDS011;15077;49.704;9.908;2023-04-24T15:05:04;5.55;;;2.88;;
27670;SDS011;15077;49.704;9.908;2023-04-24T15:07:31;3.03;;;2.67;;
27670;SDS011;15077;49.704;9.908;2023-04-24T15:09:58;5.63;;;3.25;;
27670;SDS011;15077;49.704;9.908;2023-04-24T15:12:23;2.58;;;2.33;;
27670;SDS011;15077;49.704;9.908;2023-04-24T15:14:49;4.70;;;3.33;;